Time;durP1;ratioP1;P1;durP2;ratioP2;P2;SDS_P1;SDS_P2;PMS_P1;PMS_P2;Temp;Humidity;BMP_temperature;BMP_pressure;BME280_temperature;BME280_humidity;BME280_pressure;Samples;Min_cycle;Max_cycle;Signal;HPM_P1;HPM_P2
2022/08/17 00:00:54;;;;;;;14.10;10.25;;;;;;;21.49;82.29;100124.78;1785972;79;25264;-76
2022/08/17 00:03:25;;;;;;;11.03;9.93;;;;;;;21.46;82.43;100122.61;1816362;76;27462;-77
2022/08/17 00:06:10;;;;;;;12.37;9.83;;;;;;;21.41;82.33;100125.31;1784922;79;25748;-77
2022/08/17 00:08:48;;;;;;;13.53;12.07;;;;;;;21.39;82.42;100130.22;1743835;78;38279;-76
2022/08/17 00:11:27;;;;;;;12.80;11.33;;;;;;;21.61;82.08;100127.81;1772999;79;26383;-76
2022/08/17 00:13:59;;;;;;;16.40;12.45;;;;;;;21.55;82.11;100129.72;1752615;81;27055;-77
2022/08/17 00:16:33;;;;;;;13.28;10.80;;;;;;;21.52;82.22;100126.16;1800807;79;27528;-77
2022/08/17 00:19:03;;;;;;;14.65;11.65;;;;;;;21.50;82.28;100118.80;1741975;81;26424;-76
2022/08/17 00:21:32;;;;;;;18.23;12.07;;;;;;;21.47;82.27;100117.95;1786096;79;25720;-76
2022/08/17 00:23:58;;;;;;;16.35;12.03;;;;;;;21.43;82.42;100108.16;1754990;79;25794;-77
2022/08/17 00:26:26;;;;;;;14.33;11.65;;;;;;;21.38;82.34;100103.25;1788899;79;25932;-77
2022/08/17 00:28:54;;;;;;;16.95;12.05;;;;;;;21.38;82.48;100104.61;1780554;78;27436;-77
2022/08/17 00:31:21;;;;;;;12.58;11.30;;;;;;;21.38;82.57;100101.89;1781167;79;25853;-76
2022/08/17 00:33:49;;;;;;;14.07;11.57;;;;;;;21.39;82.51;100102.14;1787086;79;26038;-77
2022/08/17 00:36:17;;;;;;;11.93;10.70;;;;;;;21.35;82.48;100105.96;1787170;79;26601;-77
2022/08/17 00:38:44;;;;;;;12.33;10.93;;;;;;;21.33;82.32;100103.23;1788046;78;25822;-76
2022/08/17 00:41:14;;;;;;;15.25;11.38;;;;;;;21.30;82.48;100106.48;1779406;79;27498;-77
2022/08/17 00:43:44;;;;;;;;;;;;;;;21.29;82.54;100110.30;1797943;78;26027;-77
2022/08/17 00:46:15;;;;;;;14.58;10.30;;;;;;;21.24;82.54;100108.37;1809497;76;25738;-76
2022/08/17 00:48:43;;;;;;;9.43;7.85;;;;;;;21.18;82.52;100106.73;1817326;76;25770;-76
2022/08/17 00:51:36;;;;;;;10.60;9.70;;;;;;;21.15;82.20;100105.09;1814247;76;25700;-76
2022/08/17 00:54:29;;;;;;;11.75;9.13;;;;;;;21.10;82.33;100109.98;1820985;76;27527;-77
2022/08/17 00:57:10;;;;;;;10.40;8.95;;;;;;;21.02;82.30;100106.36;1784922;78;25831;-76
2022/08/17 00:59:42;;;;;;;12.70;9.10;;;;;;;20.95;82.47;100104.45;1807058;78;25801;-76
2022/08/17 01:02:11;;;;;;;11.80;10.28;;;;;;;20.90;82.60;100116.67;1827055;76;26597;-76
2022/08/17 01:04:38;;;;;;;14.10;9.88;;;;;;;20.86;82.68;100118.28;1811172;77;26026;-75
2022/08/17 01:07:05;;;;;;;12.78;10.72;;;;;;;20.86;82.83;100121.01;1776959;80;27452;-76
2022/08/17 01:09:32;;;;;;;14.30;10.60;;;;;;;20.88;82.94;100116.65;1817114;76;25945;-76
2022/08/17 01:11:59;;;;;;;11.00;9.88;;;;;;;20.88;82.89;100114.75;1809595;76;25742;-76
2022/08/17 01:14:26;;;;;;;14.23;12.58;;;;;;;20.86;82.92;100112.84;1762610;79;26576;-77
2022/08/17 01:16:55;;;;;;;16.60;11.28;;;;;;;20.85;83.34;100111.19;1766374;79;25727;-76
2022/08/17 01:19:30;;;;;;;12.50;11.20;;;;;;;20.83;83.34;100116.08;1794313;79;27443;-76
2022/08/17 01:22:15;;;;;;;13.90;11.40;;;;;;;20.81;83.35;100121.54;1816336;78;25719;-77
2022/08/17 01:24:46;;;;;;;14.05;11.55;;;;;;;20.78;83.38;100122.31;1807913;78;25857;-76
2022/08/17 01:27:15;;;;;;;13.55;11.38;;;;;;;20.75;83.46;100120.67;1784022;79;25852;-76
2022/08/17 01:29:47;;;;;;;12.65;10.48;;;;;;;20.73;83.61;100125.56;1764388;79;26129;-76
2022/08/17 01:32:14;;;;;;;10.60;9.45;;;;;;;20.70;83.48;100120.11;1784907;79;27490;-76
2022/08/17 01:34:41;;;;;;;10.43;9.43;;;;;;;20.67;83.41;100119.83;1794535;78;25702;-76
2022/08/17 01:37:07;;;;;;;11.68;9.05;;;;;;;20.64;83.43;100124.42;1781469;78;26255;-76
2022/08/17 01:39:42;;;;;;;10.38;7.97;;;;;;;20.58;83.29;100127.67;1760715;79;25900;-76
2022/08/17 01:42:29;;;;;;;9.05;7.90;;;;;;;20.55;83.33;100123.30;1783639;78;26102;-76
2022/08/17 01:45:01;;;;;;;13.25;8.33;;;;;;;20.51;83.46;100121.63;1765346;79;27524;-76
2022/08/17 01:47:27;;;;;;;12.45;8.03;;;;;;;20.48;83.41;100119.98;1763019;79;26436;-75
2022/08/17 01:49:53;;;;;;;12.50;8.85;;;;;;;20.48;83.46;100122.71;1811691;77;25792;-75
2022/08/17 01:52:20;;;;;;;10.25;9.05;;;;;;;20.45;83.51;100118.61;1761517;80;25769;-76
2022/08/17 01:54:50;;;;;;;15.32;9.45;;;;;;;20.48;83.69;100122.17;1782846;79;25826;-76
2022/08/17 01:57:16;;;;;;;13.18;9.23;;;;;;;20.48;83.60;100124.90;1775660;79;28334;-76
2022/08/17 01:59:42;;;;;;;9.58;8.58;;;;;;;20.47;83.64;100123.78;1783730;79;25814;-75
2022/08/17 02:02:11;;;;;;;11.75;9.73;;;;;;;20.47;83.74;100125.14;1734550;81;26460;-76
2022/08/17 02:04:37;;;;;;;11.00;8.80;;;;;;;20.49;83.86;100130.60;1790062;79;26588;-75
2022/08/17 02:07:03;;;;;;;10.32;8.85;;;;;;;20.47;83.76;100130.58;1764188;79;26438;-76
2022/08/17 02:09:30;;;;;;;11.93;9.60;;;;;;;20.46;83.77;100133.86;1772643;78;28231;-76
2022/08/17 02:11:59;;;;;;;9.93;8.93;;;;;;;20.45;83.71;100128.66;1784322;79;25713;-76
2022/08/17 02:14:26;;;;;;;11.55;10.10;;;;;;;20.45;83.86;100130.02;1773001;79;25797;-76
2022/08/17 02:16:53;;;;;;;15.05;11.00;;;;;;;20.45;83.88;100123.22;1803424;78;26260;-76
2022/08/17 02:19:20;;;;;;;14.00;11.48;;;;;;;20.46;84.04;100124.87;1763973;79;25268;-76
2022/08/17 02:21:50;;;;;;;14.05;11.90;;;;;;;20.46;84.00;100122.16;1787259;79;27449;-76
2022/08/17 02:24:22;;;;;;;15.20;11.80;;;;;;;20.46;84.08;100116.18;1812957;78;25971;-75
2022/08/17 02:26:49;;;;;;;16.95;13.35;;;;;;;20.47;84.18;100111.00;1805647;78;26510;-76
2022/08/17 02:29:15;;;;;;;14.80;11.95;;;;;;;20.47;84.46;100115.08;1802150;78;25952;-76
2022/08/17 02:31:43;;;;;;;12.93;11.63;;;;;;;20.48;84.48;100111.30;1789774;78;25866;-76
2022/08/17 02:34:10;;;;;;;14.65;12.43;;;;;;;20.45;84.30;100110.98;1790278;79;27451;-76
2022/08/17 02:36:36;;;;;;;18.30;12.13;;;;;;;20.42;84.33;100112.31;1805558;78;25811;-76
2022/08/17 02:39:07;;;;;;;14.00;12.20;;;;;;;20.40;84.48;100110.97;1812422;78;25912;-77
2022/08/17 02:41:35;;;;;;;11.65;9.03;;;;;;;20.39;84.58;100119.66;1813881;76;26574;-75
2022/08/17 02:44:02;;;;;;;13.08;8.25;;;;;;;20.37;84.22;100115.56;1804599;76;26654;-75
2022/08/17 02:46:29;;;;;;;7.80;7.00;;;;;;;20.32;83.85;100125.03;1811878;76;27448;-76
2022/08/17 02:48:56;;;;;;;10.48;7.97;;;;;;;20.27;83.54;100120.41;1809905;76;25732;-76
2022/08/17 02:51:23;;;;;;;9.75;8.18;;;;;;;20.22;83.44;100120.89;1785373;78;25992;-76
2022/08/17 02:53:49;;;;;;;13.20;8.60;;;;;;;20.17;83.47;100127.61;1789894;79;25837;-76
2022/08/17 02:56:16;;;;;;;14.47;10.50;;;;;;;20.13;83.58;100134.12;1790616;79;25834;-76
2022/08/17 02:58:42;;;;;;;13.00;11.33;;;;;;;20.10;83.80;100129.22;1775561;78;28366;-76
2022/08/17 03:01:09;;;;;;;16.65;12.33;;;;;;;20.08;84.10;100131.91;1790299;79;25980;-76
2022/08/17 03:03:37;;;;;;;13.25;10.25;;;;;;;20.05;84.38;100135.97;1751609;80;25778;-76
2022/08/17 03:06:06;;;;;;;15.58;10.18;;;;;;;20.02;84.04;100132.39;1830822;76;25844;-76
2022/08/17 03:08:33;;;;;;;15.20;10.60;;;;;;;19.99;84.13;100135.09;1829843;76;25961;-76
2022/08/17 03:11:00;;;;;;;16.48;12.33;;;;;;;20.00;84.16;100129.95;1814053;78;28587;-76
2022/08/17 03:13:26;;;;;;;15.85;12.93;;;;;;;20.01;84.39;100134.85;1781711;79;25828;-76
2022/08/17 03:15:52;;;;;;;17.05;14.45;;;;;;;20.03;84.56;100137.30;1769628;78;26131;-76
2022/08/17 03:18:22;;;;;;;15.18;13.62;;;;;;;20.01;84.85;100132.13;1772334;78;25773;-75
2022/08/17 03:20:48;;;;;;;13.22;11.93;;;;;;;20.01;84.98;100143.01;1761050;79;26548;-76
2022/08/17 03:23:14;;;;;;;15.10;11.45;;;;;;;20.03;85.08;100142.20;1760562;81;27455;-76
2022/08/17 03:25:42;;;;;;;13.43;12.10;;;;;;;20.04;84.91;100140.31;1787992;79;26607;-76
2022/08/17 03:28:10;;;;;;;13.72;12.33;;;;;;;20.05;84.95;100143.30;1758256;79;25795;-75
2022/08/17 03:30:38;;;;;;;14.13;11.80;;;;;;;20.05;84.80;100142.77;1764552;79;25764;-75
2022/08/17 03:33:08;;;;;;;14.13;11.70;;;;;;;20.06;84.97;100143.03;1761911;80;25704;-76
2022/08/17 03:35:39;;;;;;;16.02;14.15;;;;;;;20.07;84.96;100139.25;1809741;76;27455;-76
2022/08/17 03:38:10;;;;;;;13.70;12.30;;;;;;;20.08;84.98;100151.75;1808693;78;25891;-75
2022/08/17 03:40:38;;;;;;;15.18;13.68;;;;;;;20.08;85.10;100140.88;1757384;79;25747;-75
2022/08/17 03:43:08;;;;;;;21.17;13.68;;;;;;;20.08;85.32;100140.88;1786902;78;26560;-76
2022/08/17 03:56:43;;;;;;;20.77;16.48;;;;;;;20.38;85.96;100148.50;1759298;80;26548;-76
2022/08/17 03:59:17;;;;;;;22.45;17.35;;;;;;;20.42;86.19;100150.97;1801604;78;25762;-76
2022/08/17 04:01:45;;;;;;;19.70;16.52;;;;;;;20.46;86.38;100156.16;1786249;79;27438;-76
2022/08/17 04:04:12;;;;;;;20.08;17.57;;;;;;;20.50;86.49;100157.28;1776933;78;26490;-77
2022/08/17 04:06:41;;;;;;;21.60;19.17;;;;;;;20.53;86.27;100162.20;1794241;78;26426;-77
2022/08/17 04:09:08;;;;;;;24.20;19.40;;;;;;;20.49;86.16;100159.17;1788215;79;25852;-77
2022/08/17 04:11:35;;;;;;;24.63;18.35;;;;;;;20.48;86.29;100156.72;1791705;79;25569;-77
2022/08/17 04:14:04;;;;;;;24.98;20.10;;;;;;;20.47;86.48;100157.25;1789671;79;27485;-76
2022/08/17 04:16:32;;;;;;;24.55;20.10;;;;;;;20.47;86.58;100155.89;1771416;79;25811;-76
2022/08/17 04:18:59;;;;;;;22.42;20.02;;;;;;;20.47;86.68;100157.25;1774904;79;26477;-77
2022/08/17 04:21:25;;;;;;;22.52;19.65;;;;;;;20.48;87.11;100161.63;1783014;80;25853;-77
2022/08/17 04:23:52;;;;;;;25.45;19.52;;;;;;;20.47;87.13;100164.59;1835822;76;25872;-77
2022/08/17 04:26:21;;;;;;;22.85;19.32;;;;;;;20.45;87.25;100169.47;1760601;79;28265;-77
2022/08/17 04:28:47;;;;;;;21.65;18.52;;;;;;;20.44;87.43;100167.31;1816584;78;25762;-77
2022/08/17 04:31:14;;;;;;;21.15;18.95;;;;;;;20.44;87.49;100170.04;1813790;76;26344;-77
2022/08/17 04:33:44;;;;;;;27.32;20.48;;;;;;;20.45;87.66;100177.64;1811990;76;25731;-77
2022/08/17 04:36:14;;;;;;;23.22;19.95;;;;;;;20.45;88.16;100174.91;1815588;78;25920;-77
2022/08/17 04:38:44;;;;;;;27.20;20.43;;;;;;;20.44;88.89;100175.48;1794448;78;27447;-76
2022/08/17 04:43:58;;;;;;;22.48;20.25;;;;;;;20.46;89.60;100178.76;1796597;78;25881;-77
2022/08/17 04:46:31;;;;;;;28.02;21.30;;;;;;;20.48;89.84;100180.67;1786587;78;25764;-77
2022/08/17 04:49:01;;;;;;;23.38;20.95;;;;;;;20.52;90.08;100176.34;1780312;79;25778;-76
2022/08/17 04:51:38;;;;;;;26.37;22.37;;;;;;;20.54;90.31;100178.27;1793096;78;27644;-77
2022/08/17 04:54:10;;;;;;;23.35;20.82;;;;;;;20.58;90.52;100179.91;1757493;80;25880;-77
2022/08/17 04:56:37;;;;;;;28.25;22.95;;;;;;;20.61;90.63;100180.76;1749016;79;25795;-76
2022/08/17 04:59:08;;;;;;;26.30;23.45;;;;;;;20.65;90.80;100186.78;1769271;79;25926;-77
2022/08/17 05:01:36;;;;;;;;;;;;;;;20.69;91.06;100185.70;1793939;79;25813;-76
2022/08/17 05:04:07;;;;;;;28.27;22.17;;;;;;;20.71;91.58;100180.81;1795585;79;27620;-76
2022/08/17 05:06:34;;;;;;;25.68;21.00;;;;;;;20.70;91.74;100188.69;1759380;80;26105;-76
2022/08/17 05:09:01;;;;;;;27.27;21.93;;;;;;;20.72;91.95;100184.62;1786028;78;25835;-77
2022/08/17 05:11:28;;;;;;;27.27;22.85;;;;;;;20.76;92.22;100183.02;1784337;79;25896;-76
2022/08/17 05:13:57;;;;;;;25.68;22.77;;;;;;;20.82;92.63;100177.61;1777833;79;26527;-76
2022/08/17 05:16:26;;;;;;;25.97;23.22;;;;;;;20.85;92.58;100191.50;1758213;79;27472;-75
2022/08/17 05:18:52;;;;;;;25.48;22.55;;;;;;;20.87;92.85;100185.25;1780450;79;25774;-76
2022/08/17 05:21:21;;;;;;;24.98;22.10;;;;;;;20.92;92.90;100185.28;1813733;76;25760;-76
2022/08/17 05:23:49;;;;;;;26.55;23.40;;;;;;;20.97;93.34;100193.49;1803995;78;25776;-76
2022/08/17 05:26:19;;;;;;;27.37;24.23;;;;;;;21.01;93.21;100194.60;1786500;78;25866;-76
2022/08/17 05:28:47;;;;;;;28.10;25.20;;;;;;;21.10;93.41;100190.86;1786941;78;27448;-77
2022/08/17 05:31:14;;;;;;;28.50;25.08;;;;;;;21.15;93.45;100190.33;1777805;78;26422;-77
2022/08/17 05:33:41;;;;;;;30.12;23.18;;;;;;;21.22;93.58;100196.36;1776078;78;25839;-77
2022/08/17 05:36:12;;;;;;;28.77;25.20;;;;;;;21.28;93.50;100185.76;1776353;79;26874;-77
2022/08/17 05:38:38;;;;;;;30.60;24.23;;;;;;;21.37;93.62;100193.70;1788983;79;28970;-76
2022/08/17 05:41:07;;;;;;;27.65;24.70;;;;;;;21.43;93.54;100187.17;1781888;79;28220;-77
2022/08/17 05:43:40;;;;;;;26.60;21.52;;;;;;;21.51;93.90;100190.73;1768818;79;25906;-77
2022/08/17 05:46:30;;;;;;;27.52;24.63;;;;;;;21.59;93.88;100190.78;1790817;78;25734;-76
2022/08/17 05:49:09;;;;;;;30.73;23.67;;;;;;;21.66;93.88;100184.53;1782014;78;25856;-77
2022/08/17 05:51:54;;;;;;;29.42;23.98;;;;;;;21.74;94.09;100184.53;1789639;78;25758;-76
2022/08/17 05:54:41;;;;;;;29.77;25.27;;;;;;;21.82;94.26;100194.91;1780458;78;28252;-76
2022/08/17 05:57:39;;;;;;;29.63;23.02;;;;;;;21.93;94.25;100188.41;1793996;79;26029;-76
2022/08/17 06:00:15;;;;;;;28.25;25.10;;;;;;;22.00;94.11;100187.62;1788275;79;25797;-77
2022/08/17 06:03:16;;;;;;;29.85;25.25;;;;;;;22.08;94.33;100186.53;1772126;79;26739;-76
2022/08/17 06:06:01;;;;;;;;;;;;;;;22.20;94.26;100190.34;1797936;79;25799;-76
2022/08/17 06:08:53;;;;;;;30.25;23.38;;;;;;;22.30;94.16;100194.98;1760273;79;27310;-76
2022/08/17 06:11:36;;;;;;;26.93;23.18;;;;;;;22.35;93.92;100195.80;1786519;79;25882;-76
2022/08/17 06:14:11;;;;;;;27.50;22.67;;;;;;;22.47;94.40;100196.89;1769300;79;25956;-76
2022/08/17 06:16:45;;;;;;;24.35;21.17;;;;;;;22.58;94.20;100198.52;1788135;79;26649;-75
2022/08/17 06:19:36;;;;;;;25.10;21.12;;;;;;;22.66;94.09;100200.19;1789445;78;25804;-76
2022/08/17 06:22:05;;;;;;;22.35;19.90;;;;;;;22.76;93.74;100198.79;1785510;79;28268;-76
2022/08/17 06:24:48;;;;;;;26.07;21.50;;;;;;;22.86;93.32;100202.06;1746603;81;25803;-76
2022/08/17 06:27:31;;;;;;;26.62;21.15;;;;;;;22.93;92.93;100204.77;1759456;79;25839;-76
2022/08/17 06:30:07;;;;;;;21.77;19.32;;;;;;;23.03;92.68;100204.47;1819208;76;25776;-76
2022/08/17 06:32:31;;;;;;;22.37;20.08;;;;;;;23.12;92.96;100206.91;1809347;78;25904;-76
2022/08/17 06:35:00;;;;;;;22.32;19.98;;;;;;;23.23;92.89;100207.12;1810845;78;27513;-76
2022/08/17 06:37:47;;;;;;;22.27;19.62;;;;;;;23.31;92.73;100207.36;1809313;78;25919;-76
2022/08/17 06:40:36;;;;;;;20.77;18.57;;;;;;;23.40;92.59;100208.99;1758651;80;25748;-76
2022/08/17 06:43:23;;;;;;;18.82;16.90;;;;;;;23.46;92.13;100209.27;1783086;79;25752;-76
2022/08/17 06:46:04;;;;;;;20.40;16.45;;;;;;;23.54;91.77;100213.59;1779763;79;25650;-76
2022/08/17 06:48:54;;;;;;;25.00;16.60;;;;;;;23.58;91.42;100207.83;1796428;78;27528;-76
2022/08/17 06:51:30;;;;;;;19.92;16.77;;;;;;;23.65;91.39;100207.52;1794217;78;33885;-76
2022/08/17 06:54:05;;;;;;;26.97;17.30;;;;;;;23.69;91.02;100207.22;1787897;78;25913;-76
2022/08/17 06:56:39;;;;;;;23.83;18.40;;;;;;;23.76;90.71;100211.27;1779348;78;25953;-75
2022/08/17 06:59:09;;;;;;;24.15;18.48;;;;;;;23.85;90.56;100210.13;1783322;79;26379;-76
2022/08/17 07:01:39;;;;;;;25.17;18.00;;;;;;;23.93;90.71;100214.98;1818946;78;28399;-76
2022/08/17 07:04:17;;;;;;;18.95;16.90;;;;;;;24.03;90.81;100212.74;1837418;76;25734;-76
2022/08/17 07:06:51;;;;;;;21.40;16.45;;;;;;;24.12;90.94;100209.13;1823213;76;25750;-77
2022/08/17 07:09:36;;;;;;;23.00;17.57;;;;;;;24.22;91.01;100213.19;1786444;79;26124;-76
2022/08/17 07:12:20;;;;;;;21.87;15.48;;;;;;;24.30;90.08;100211.73;1811734;76;25742;-76
2022/08/17 07:14:52;;;;;;;22.65;16.32;;;;;;;24.37;89.66;100214.98;1813439;78;27455;-76
2022/08/17 07:17:22;;;;;;;21.05;16.15;;;;;;;24.44;89.56;100225.05;1769543;80;25793;-76
2022/08/17 07:19:53;;;;;;;18.65;16.37;;;;;;;24.53;89.79;100223.31;1735745;79;25869;-76
2022/08/17 07:22:47;;;;;;;21.00;15.80;;;;;;;24.59;89.25;100229.03;1778818;78;26432;-76
2022/08/17 07:25:20;;;;;;;19.17;14.40;;;;;;;24.66;88.77;100223.22;1785337;79;26122;-76
2022/08/17 07:27:59;;;;;;;17.23;15.45;;;;;;;24.72;88.75;100222.06;1754456;79;28335;-77
2022/08/17 07:30:33;;;;;;;18.90;15.18;;;;;;;24.77;88.34;100222.85;1770069;79;25704;-77
2022/08/17 07:33:13;;;;;;;19.70;14.73;;;;;;;24.82;88.12;100217.33;1782765;79;25736;-77
2022/08/17 07:35:42;;;;;;;15.85;14.18;;;;;;;24.89;87.88;100214.25;1791460;78;25806;-75
2022/08/17 07:38:23;;;;;;;17.67;14.87;;;;;;;24.96;88.25;100215.53;1792255;79;25693;-76
2022/08/17 07:41:01;;;;;;;18.23;14.83;;;;;;;24.97;87.40;100213.06;1774338;79;28135;-76
2022/08/17 07:43:46;;;;;;;19.45;14.20;;;;;;;25.02;87.47;100216.31;1783046;79;25492;-76
2022/08/17 07:49:24;;;;;;;19.07;14.23;;;;;;;25.16;87.07;100207.64;1791752;79;26396;-76
2022/08/17 07:51:56;;;;;;;17.62;14.10;;;;;;;25.22;86.71;100209.20;1777975;79;25852;-76
2022/08/17 07:54:31;;;;;;;17.98;14.25;;;;;;;25.26;86.32;100207.51;1781514;78;27490;-77
2022/08/17 07:57:15;;;;;;;16.67;13.53;;;;;;;25.31;85.74;100201.97;1799282;78;26325;-76
2022/08/17 08:00:02;;;;;;;20.23;14.40;;;;;;;25.37;86.15;100200.80;1782513;78;25796;-76
2022/08/17 08:02:41;;;;;;;18.52;14.13;;;;;;;25.42;84.98;100209.00;1768167;78;25806;-76
2022/08/17 08:05:18;;;;;;;17.07;13.80;;;;;;;25.46;85.03;100207.30;1726746;80;26483;-76
2022/08/17 08:07:58;;;;;;;14.35;12.85;;;;;;;25.49;84.97;100206.69;1800874;79;27463;-76
2022/08/17 08:10:36;;;;;;;17.57;14.30;;;;;;;25.56;84.80;100201.67;1769422;79;25839;-77
2022/08/17 08:13:14;;;;;;;20.45;12.58;;;;;;;25.64;85.09;100206.48;1768234;79;25917;-77
2022/08/17 08:15:47;;;;;;;15.23;13.72;;;;;;;25.74;85.36;100210.48;1768802;79;25795;-76
2022/08/17 08:18:35;;;;;;;18.67;13.48;;;;;;;25.79;84.27;100209.02;1814898;78;25849;-76
2022/08/17 08:21:09;;;;;;;19.00;14.15;;;;;;;25.87;84.37;100213.05;1813066;76;27558;-77
2022/08/17 08:23:47;;;;;;;19.98;13.58;;;;;;;25.98;84.22;100214.53;1820228;76;25918;-76
2022/08/17 08:26:49;;;;;;;15.72;12.30;;;;;;;26.07;83.21;100213.30;1804536;78;26476;-76
2022/08/17 08:29:42;;;;;;;16.50;12.98;;;;;;;26.14;83.38;100217.87;1819814;76;25839;-76
2022/08/17 08:32:32;;;;;;;17.00;13.08;;;;;;;26.22;83.54;100214.47;1817729;76;26043;-76
2022/08/17 08:35:22;;;;;;;16.27;13.60;;;;;;;26.27;83.15;100222.61;1817041;76;27460;-76
2022/08/17 08:37:59;;;;;;;14.60;13.18;;;;;;;26.35;82.51;100224.11;1827205;76;25800;-76
2022/08/17 08:41:02;;;;;;;14.83;12.55;;;;;;;26.39;81.86;100221.02;1741920;80;25777;-76
2022/08/17 08:44:02;;;;;;;16.40;11.30;;;;;;;26.42;81.54;100217.69;1785263;79;26852;-76
2022/08/17 08:46:38;;;;;;;13.98;12.07;;;;;;;26.42;80.98;100225.11;1784085;79;25913;-77
2022/08/17 08:49:46;;;;;;;14.03;11.30;;;;;;;26.52;80.77;100227.13;1783657;79;27525;-76
2022/08/17 08:52:33;;;;;;;13.22;11.60;;;;;;;26.59;79.93;100227.56;1781338;79;25812;-76
2022/08/17 08:55:24;;;;;;;19.25;12.65;;;;;;;26.59;79.95;100223.98;1779143;79;25724;-76
2022/08/17 08:57:59;;;;;;;13.35;11.60;;;;;;;26.54;80.08;100230.38;1771969;79;26605;-76
2022/08/17 09:00:27;;;;;;;13.60;10.90;;;;;;;26.47;79.66;100236.02;1745785;79;25943;-76
2022/08/17 09:03:28;;;;;;;15.38;11.45;;;;;;;26.42;78.98;100227.86;1795878;79;28285;-76
2022/08/17 09:06:20;;;;;;;13.13;10.48;;;;;;;26.33;78.73;100230.47;1785007;79;26568;-76
2022/08/17 09:09:01;;;;;;;14.28;11.03;;;;;;;26.27;78.92;100230.30;1772050;78;26396;-76
2022/08/17 09:11:48;;;;;;;11.53;10.43;;;;;;;26.30;79.63;100227.52;1782741;79;26322;-76
2022/08/17 09:14:27;;;;;;;15.40;10.93;;;;;;;26.41;79.35;100227.03;1774008;78;26430;-77
2022/08/17 09:19:54;;;;;;;13.62;10.32;;;;;;;26.72;79.28;100224.06;1840166;77;26332;-77
2022/08/17 09:22:47;;;;;;;13.50;11.20;;;;;;;26.82;78.92;100225.01;1830934;76;26419;-77
2022/08/17 09:25:22;;;;;;;12.93;11.15;;;;;;;26.92;78.02;100227.01;1831884;77;27458;-77
2022/08/17 09:28:00;;;;;;;16.82;10.65;;;;;;;27.06;77.88;100222.33;1820337;77;25747;-77
2022/08/17 09:30:45;;;;;;;13.25;11.03;;;;;;;27.16;77.79;100224.87;1812525;78;26275;-77
2022/08/17 09:33:17;;;;;;;12.40;10.50;;;;;;;27.22;77.26;100221.48;1824585;77;25711;-77
2022/08/17 09:35:48;;;;;;;13.03;10.45;;;;;;;27.18;76.52;100232.83;1818126;78;26578;-76
2022/08/17 09:38:47;;;;;;;17.10;11.78;;;;;;;27.08;76.79;100235.77;1823231;77;27435;-77
2022/08/17 09:41:27;;;;;;;11.73;10.43;;;;;;;27.03;77.11;100235.88;1800726;78;25309;-77
2022/08/17 09:44:15;;;;;;;14.95;11.40;;;;;;;26.97;77.13;100237.89;1810202;78;25868;-76
2022/08/17 09:47:09;;;;;;;14.07;11.97;;;;;;;26.92;77.50;100238.55;1810732;78;25715;-77
2022/08/17 09:50:13;;;;;;;14.15;12.33;;;;;;;26.87;77.66;100233.96;1794195;77;25823;-77
2022/08/17 09:52:41;;;;;;;17.35;11.80;;;;;;;26.82;77.75;100231.88;1809543;78;28286;-77
2022/08/17 09:55:08;;;;;;;16.85;12.35;;;;;;;26.73;77.75;100234.51;1822618;78;25724;-77
2022/08/17 09:57:46;;;;;;;13.32;11.83;;;;;;;26.67;77.84;100232.36;1803832;78;25736;-77
2022/08/17 10:00:22;;;;;;;13.95;11.15;;;;;;;26.62;78.38;100235.18;1804725;78;25797;-78
2022/08/17 10:03:18;;;;;;;15.88;11.33;;;;;;;26.62;78.84;100228.89;1823990;78;25753;-77
2022/08/17 10:06:01;;;;;;;14.40;10.23;;;;;;;26.59;78.12;100231.68;1817132;78;27507;-77
2022/08/17 10:09:03;;;;;;;15.85;10.63;;;;;;;26.57;78.15;100236.66;1787099;78;25789;-76
2022/08/17 10:15:04;;;;;;;12.40;10.68;;;;;;;26.41;77.29;100242.14;1816707;78;25818;-77
2022/08/17 10:18:02;;;;;;;16.25;11.85;;;;;;;26.41;77.29;100238.59;1805702;78;26369;-77
2022/08/17 10:20:50;;;;;;;18.62;11.78;;;;;;;26.45;77.87;100241.00;1817077;78;28211;-76
2022/08/17 10:26:24;;;;;;;17.48;11.73;;;;;;;26.70;78.42;100241.38;1817446;78;25839;-76
2022/08/17 10:28:59;;;;;;;16.25;11.75;;;;;;;26.85;77.22;100236.20;1812166;78;25765;-77
2022/08/17 10:31:36;;;;;;;16.10;11.15;;;;;;;27.01;77.07;100237.53;1806801;78;25788;-76
2022/08/17 10:34:33;;;;;;;12.53;10.03;;;;;;;27.16;76.30;100231.74;1819001;78;28337;-76
2022/08/17 10:37:10;;;;;;;12.60;11.18;;;;;;;27.32;75.45;100233.09;1816437;78;25908;-76
2022/08/17 10:39:52;;;;;;;15.98;10.85;;;;;;;27.50;75.68;100233.55;1821242;78;25726;-77
2022/08/17 10:42:33;;;;;;;14.35;9.95;;;;;;;27.60;74.92;100235.84;1818619;78;26178;-76
2022/08/17 10:45:28;;;;;;;13.35;9.75;;;;;;;27.68;74.41;100240.61;1808310;78;25920;-77
2022/08/17 10:48:11;;;;;;;14.25;9.60;;;;;;;27.64;73.92;100243.17;1825528;78;27450;-77
2022/08/17 10:50:49;;;;;;;15.28;9.65;;;;;;;27.56;73.77;100241.70;1821509;78;25824;-76
2022/08/17 10:53:42;;;;;;;12.30;9.00;;;;;;;27.56;74.03;100239.78;1833945;77;25838;-76
2022/08/17 10:56:16;;;;;;;10.03;8.85;;;;;;;27.63;73.42;100236.61;1838236;76;25719;-77
2022/08/17 10:58:59;;;;;;;15.63;9.63;;;;;;;27.69;72.14;100234.00;1840609;77;25843;-77
2022/08/17 11:01:37;;;;;;;12.30;10.08;;;;;;;27.75;72.45;100234.14;1793162;78;27440;-76
2022/08/17 11:04:20;;;;;;;12.95;8.93;;;;;;;27.85;72.22;100230.59;1820882;78;25754;-77
2022/08/17 11:07:01;;;;;;;11.45;8.70;;;;;;;27.99;71.75;100230.02;1824585;78;25808;-77
2022/08/17 11:10:02;;;;;;;14.40;8.38;;;;;;;28.00;71.04;100225.33;1818008;78;25807;-76
2022/08/17 11:12:42;;;;;;;10.85;9.53;;;;;;;28.03;70.44;100228.30;1817144;78;26178;-77
2022/08/17 11:15:30;;;;;;;11.63;8.75;;;;;;;28.00;70.11;100228.91;1834144;77;27512;-77
2022/08/17 11:18:54;;;;;;;12.23;8.23;;;;;;;27.95;69.87;100234.48;1794685;78;25754;-77
2022/08/17 11:22:01;;;;;;;9.50;8.58;;;;;;;27.83;69.00;100232.84;1800312;78;26615;-77
2022/08/17 11:24:41;;;;;;;12.07;8.65;;;;;;;27.70;69.44;100232.30;1843005;77;25803;-77
2022/08/17 11:27:31;;;;;;;8.55;7.62;;;;;;;27.69;70.12;100240.87;1828876;77;26039;-76
2022/08/17 11:30:08;;;;;;;12.07;8.87;;;;;;;27.75;69.98;100243.77;1794684;78;27432;-77
2022/08/17 11:32:43;;;;;;;13.40;8.05;;;;;;;27.82;69.74;100237.30;1808870;77;25845;-76
2022/08/17 11:35:24;;;;;;;8.80;7.60;;;;;;;27.93;70.30;100235.36;1836965;77;25748;-78
2022/08/17 11:38:17;;;;;;;11.80;7.65;;;;;;;28.04;69.12;100235.97;1839890;76;25943;-76
2022/08/17 11:41:22;;;;;;;11.68;8.03;;;;;;;28.00;67.44;100238.55;1779781;79;25742;-77
2022/08/17 11:44:25;;;;;;;10.70;6.95;;;;;;;27.88;67.84;100233.30;1822297;78;27476;-77
2022/08/17 11:53:07;;;;;;;9.15;6.97;;;;;;;28.24;67.94;100225.86;1813463;78;25947;-76
2022/08/17 11:55:42;;;;;;;10.43;7.08;;;;;;;28.40;67.66;100221.59;1770438;79;25969;-76
2022/08/17 11:58:37;;;;;;;12.35;7.03;;;;;;;28.49;66.54;100227.16;1823461;78;27446;-78
2022/08/17 12:01:25;;;;;;;9.25;6.92;;;;;;;28.60;66.07;100228.56;1801941;78;26434;-77
2022/08/17 12:04:20;;;;;;;7.45;6.40;;;;;;;28.74;66.20;100227.94;1820974;78;25851;-77
2022/08/17 12:06:58;;;;;;;9.88;6.60;;;;;;;28.82;65.43;100225.23;1804689;78;25745;-76
2022/08/17 12:09:31;;;;;;;9.58;7.00;;;;;;;28.93;64.75;100227.94;1823127;78;25944;-76
2022/08/17 12:12:06;;;;;;;10.32;6.37;;;;;;;28.93;64.62;100226.56;1826244;78;26862;-77
2022/08/17 12:14:34;;;;;;;11.38;6.45;;;;;;;29.03;63.95;100226.05;1810962;78;26015;-77
2022/08/17 12:17:08;;;;;;;10.35;5.87;;;;;;;29.11;64.27;100228.02;1822877;78;25797;-77
2022/08/17 12:19:37;;;;;;;8.48;5.62;;;;;;;29.12;63.18;100223.59;1820900;78;25895;-77
2022/08/17 12:22:36;;;;;;;8.55;5.62;;;;;;;29.02;62.95;100234.88;1809914;78;25922;-76
2022/08/17 12:25:10;;;;;;;8.50;5.95;;;;;;;28.93;62.46;100236.80;1813994;78;27601;-77